sensor_id;sensor_type;location;lat;lon;timestamp;temperature;humidity
6879;DHT22;3478;51.462;7.338;2022-08-03T00:04:46;21.60;99.90
6879;DHT22;3478;51.462;7.338;2022-08-03T00:09:48;21.60;99.90
6879;DHT22;3478;51.462;7.338;2022-08-03T00:14:50;21.50;99.90
6879;DHT22;3478;51.462;7.338;2022-08-03T00:19:53;21.40;99.90
6879;DHT22;3478;51.462;7.338;2022-08-03T00:24:55;21.30;99.90
6879;DHT22;3478;51.462;7.338;2022-08-03T00:29:57;21.30;99.90
6879;DHT22;3478;51.462;7.338;2022-08-03T00:35:00;21.10;99.90
6879;DHT22;3478;51.462;7.338;2022-08-03T00:40:03;21.00;99.90
6879;DHT22;3478;51.462;7.338;2022-08-03T00:45:05;21.00;99.90
6879;DHT22;3478;51.462;7.338;2022-08-03T00:50:09;20.90;99.90
6879;DHT22;3478;51.462;7.338;2022-08-03T00:55:11;20.90;99.90
6879;DHT22;3478;51.462;7.338;2022-08-03T01:00:16;20.90;99.90
6879;DHT22;3478;51.462;7.338;2022-08-03T01:05:20;20.80;99.90
6879;DHT22;3478;51.462;7.338;2022-08-03T01:10:27;20.80;99.90
6879;DHT22;3478;51.462;7.338;2022-08-03T01:15:37;20.80;99.90
6879;DHT22;3478;51.462;7.338;2022-08-03T01:20:47;20.80;99.90
6879;DHT22;3478;51.462;7.338;2022-08-03T01:26:02;20.80;99.90
6879;DHT22;3478;51.462;7.338;2022-08-03T01:31:09;20.80;99.90
6879;DHT22;3478;51.462;7.338;2022-08-03T01:36:13;20.80;99.90
6879;DHT22;3478;51.462;7.338;2022-08-03T01:41:19;20.80;99.90
6879;DHT22;3478;51.462;7.338;2022-08-03T01:46:24;20.80;99.90
6879;DHT22;3478;51.462;7.338;2022-08-03T01:51:28;20.80;99.90
6879;DHT22;3478;51.462;7.338;2022-08-03T01:56:32;20.80;99.90
6879;DHT22;3478;51.462;7.338;2022-08-03T02:01:36;20.80;99.90
6879;DHT22;3478;51.462;7.338;2022-08-03T02:06:39;20.80;99.90
6879;DHT22;3478;51.462;7.338;2022-08-03T02:11:42;20.80;99.90
6879;DHT22;3478;51.462;7.338;2022-08-03T02:16:48;20.80;99.90
6879;DHT22;3478;51.462;7.338;2022-08-03T02:21:52;20.80;99.90
6879;DHT22;3478;51.462;7.338;2022-08-03T02:26:55;20.70;99.90
6879;DHT22;3478;51.462;7.338;2022-08-03T02:31:59;20.70;99.90
6879;DHT22;3478;51.462;7.338;2022-08-03T02:37:04;20.70;99.90
6879;DHT22;3478;51.462;7.338;2022-08-03T02:42:08;20.60;99.90
6879;DHT22;3478;51.462;7.338;2022-08-03T02:47:12;20.60;99.90
6879;DHT22;3478;51.462;7.338;2022-08-03T02:52:16;20.50;99.90
6879;DHT22;3478;51.462;7.338;2022-08-03T02:57:19;20.40;99.90
6879;DHT22;3478;51.462;7.338;2022-08-03T03:02:24;20.40;99.90
6879;DHT22;3478;51.462;7.338;2022-08-03T03:07:26;20.40;99.90
6879;DHT22;3478;51.462;7.338;2022-08-03T03:12:28;20.30;99.90
6879;DHT22;3478;51.462;7.338;2022-08-03T03:17:34;20.30;99.90
6879;DHT22;3478;51.462;7.338;2022-08-03T03:22:36;20.20;99.90
6879;DHT22;3478;51.462;7.338;2022-08-03T03:27:39;20.20;99.90
6879;DHT22;3478;51.462;7.338;2022-08-03T03:32:42;20.10;99.90
6879;DHT22;3478;51.462;7.338;2022-08-03T03:37:44;20.10;99.90
6879;DHT22;3478;51.462;7.338;2022-08-03T03:42:46;20.10;99.90
6879;DHT22;3478;51.462;7.338;2022-08-03T03:47:50;20.30;99.90
6879;DHT22;3478;51.462;7.338;2022-08-03T03:52:52;20.30;99.90
6879;DHT22;3478;51.462;7.338;2022-08-03T03:57:53;20.30;99.90
6879;DHT22;3478;51.462;7.338;2022-08-03T04:02:57;20.30;99.90
6879;DHT22;3478;51.462;7.338;2022-08-03T04:08:00;20.30;99.90
6879;DHT22;3478;51.462;7.338;2022-08-03T04:13:20;20.30;99.90
6879;DHT22;3478;51.462;7.338;2022-08-03T04:18:25;20.30;99.90
6879;DHT22;3478;51.462;7.338;2022-08-03T04:23:30;20.20;99.90
6879;DHT22;3478;51.462;7.338;2022-08-03T04:28:33;20.20;99.90
6879;DHT22;3478;51.462;7.338;2022-08-03T04:33:38;20.20;99.90
6879;DHT22;3478;51.462;7.338;2022-08-03T04:38:48;20.20;99.90
6879;DHT22;3478;51.462;7.338;2022-08-03T04:43:54;20.30;99.90
6879;DHT22;3478;51.462;7.338;2022-08-03T04:48:58;20.40;99.90
6879;DHT22;3478;51.462;7.338;2022-08-03T04:54:01;20.50;99.90
6879;DHT22;3478;51.462;7.338;2022-08-03T04:59:03;20.50;99.90
6879;DHT22;3478;51.462;7.338;2022-08-03T05:04:07;20.70;99.90
6879;DHT22;3478;51.462;7.338;2022-08-03T05:09:08;20.60;99.90
6879;DHT22;3478;51.462;7.338;2022-08-03T05:14:10;20.70;99.90
6879;DHT22;3478;51.462;7.338;2022-08-03T05:19:14;20.80;99.90
6879;DHT22;3478;51.462;7.338;2022-08-03T05:24:15;20.90;99.90
6879;DHT22;3478;51.462;7.338;2022-08-03T05:29:17;21.00;99.90
6879;DHT22;3478;51.462;7.338;2022-08-03T05:34:20;21.10;99.90
6879;DHT22;3478;51.462;7.338;2022-08-03T05:39:22;21.20;99.90
6879;DHT22;3478;51.462;7.338;2022-08-03T05:44:24;21.10;99.90
6879;DHT22;3478;51.462;7.338;2022-08-03T05:49:28;21.20;99.90
6879;DHT22;3478;51.462;7.338;2022-08-03T05:54:29;21.30;99.90
6879;DHT22;3478;51.462;7.338;2022-08-03T05:59:31;21.50;99.90
6879;DHT22;3478;51.462;7.338;2022-08-03T06:04:35;21.70;99.90
6879;DHT22;3478;51.462;7.338;2022-08-03T06:09:37;21.90;99.90
6879;DHT22;3478;51.462;7.338;2022-08-03T06:14:40;22.10;99.90
6879;DHT22;3478;51.462;7.338;2022-08-03T06:19:44;22.30;99.90
6879;DHT22;3478;51.462;7.338;2022-08-03T06:24:46;22.40;99.90
6879;DHT22;3478;51.462;7.338;2022-08-03T06:29:48;22.60;99.90
6879;DHT22;3478;51.462;7.338;2022-08-03T06:34:51;22.80;99.90
6879;DHT22;3478;51.462;7.338;2022-08-03T06:39:53;23.00;99.90
6879;DHT22;3478;51.462;7.338;2022-08-03T06:44:55;23.20;99.90
6879;DHT22;3478;51.462;7.338;2022-08-03T06:49:58;23.40;99.90
6879;DHT22;3478;51.462;7.338;2022-08-03T06:55:00;23.50;99.90
6879;DHT22;3478;51.462;7.338;2022-08-03T07:00:03;23.70;99.90
6879;DHT22;3478;51.462;7.338;2022-08-03T07:05:07;23.80;99.90
6879;DHT22;3478;51.462;7.338;2022-08-03T07:10:10;24.00;99.90
6879;DHT22;3478;51.462;7.338;2022-08-03T07:15:12;24.20;99.90
6879;DHT22;3478;51.462;7.338;2022-08-03T07:20:16;24.30;99.90
6879;DHT22;3478;51.462;7.338;2022-08-03T07:25:18;24.40;99.90
6879;DHT22;3478;51.462;7.338;2022-08-03T07:30:20;24.50;99.90
6879;DHT22;3478;51.462;7.338;2022-08-03T07:35:24;24.60;99.90
6879;DHT22;3478;51.462;7.338;2022-08-03T07:40:26;24.70;99.90
6879;DHT22;3478;51.462;7.338;2022-08-03T07:45:29;24.90;99.90
6879;DHT22;3478;51.462;7.338;2022-08-03T07:50:32;25.00;99.90
6879;DHT22;3478;51.462;7.338;2022-08-03T07:55:34;25.20;99.90
6879;DHT22;3478;51.462;7.338;2022-08-03T08:00:36;25.20;99.90
6879;DHT22;3478;51.462;7.338;2022-08-03T08:05:39;25.40;99.90
6879;DHT22;3478;51.462;7.338;2022-08-03T08:10:41;25.50;99.90
6879;DHT22;3478;51.462;7.338;2022-08-03T08:15:43;25.60;99.90
6879;DHT22;3478;51.462;7.338;2022-08-03T08:20:46;25.80;99.90
6879;DHT22;3478;51.462;7.338;2022-08-03T08:25:49;25.80;99.90
6879;DHT22;3478;51.462;7.338;2022-08-03T08:30:51;25.90;99.90
6879;DHT22;3478;51.462;7.338;2022-08-03T08:35:54;26.20;99.90
6879;DHT22;3478;51.462;7.338;2022-08-03T08:40:56;26.30;99.90
6879;DHT22;3478;51.462;7.338;2022-08-03T08:45:59;26.20;99.90
6879;DHT22;3478;51.462;7.338;2022-08-03T08:51:02;26.30;99.90
6879;DHT22;3478;51.462;7.338;2022-08-03T08:56:04;26.60;99.90
6879;DHT22;3478;51.462;7.338;2022-08-03T09:01:07;26.80;99.90
6879;DHT22;3478;51.462;7.338;2022-08-03T09:06:11;27.10;99.90
6879;DHT22;3478;51.462;7.338;2022-08-03T09:11:13;27.20;99.90
6879;DHT22;3478;51.462;7.338;2022-08-03T09:16:16;27.30;99.90
6879;DHT22;3478;51.462;7.338;2022-08-03T09:21:22;27.50;99.90
6879;DHT22;3478;51.462;7.338;2022-08-03T09:26:26;27.70;99.90
6879;DHT22;3478;51.462;7.338;2022-08-03T09:31:32;28.00;99.90
6879;DHT22;3478;51.462;7.338;2022-08-03T09:36:38;28.40;99.90
6879;DHT22;3478;51.462;7.338;2022-08-03T09:41:42;28.60;99.90
6879;DHT22;3478;51.462;7.338;2022-08-03T09:46:49;28.80;99.90
6879;DHT22;3478;51.462;7.338;2022-08-03T09:51:53;29.10;99.90
6879;DHT22;3478;51.462;7.338;2022-08-03T09:56:55;29.30;99.90
6879;DHT22;3478;51.462;7.338;2022-08-03T10:01:58;29.30;98.30
6879;DHT22;3478;51.462;7.338;2022-08-03T10:07:04;29.50;98.10
6879;DHT22;3478;51.462;7.338;2022-08-03T10:12:08;29.70;98.30
6879;DHT22;3478;51.462;7.338;2022-08-03T10:17:10;30.00;96.60
6879;DHT22;3478;51.462;7.338;2022-08-03T10:22:14;30.30;96.30
6879;DHT22;3478;51.462;7.338;2022-08-03T10:27:18;30.60;95.00
6879;DHT22;3478;51.462;7.338;2022-08-03T10:32:27;30.60;94.70
6879;DHT22;3478;51.462;7.338;2022-08-03T10:37:38;31.00;94.10
6879;DHT22;3478;51.462;7.338;2022-08-03T10:42:42;31.20;92.30
6879;DHT22;3478;51.462;7.338;2022-08-03T10:47:45;30.90;92.20
6879;DHT22;3478;51.462;7.338;2022-08-03T10:52:55;30.90;91.90
6879;DHT22;3478;51.462;7.338;2022-08-03T10:57:57;31.50;91.80
6879;DHT22;3478;51.462;7.338;2022-08-03T11:03:10;31.60;90.80
6879;DHT22;3478;51.462;7.338;2022-08-03T11:08:27;31.30;91.70
6879;DHT22;3478;51.462;7.338;2022-08-03T11:13:30;31.60;93.10
6879;DHT22;3478;51.462;7.338;2022-08-03T11:18:33;31.90;90.10
6879;DHT22;3478;51.462;7.338;2022-08-03T11:23:44;31.40;89.90
6879;DHT22;3478;51.462;7.338;2022-08-03T11:28:47;31.80;89.20
6879;DHT22;3478;51.462;7.338;2022-08-03T11:34:02;32.40;90.60
6879;DHT22;3478;51.462;7.338;2022-08-03T11:39:15;32.80;89.70
6879;DHT22;3478;51.462;7.338;2022-08-03T11:44:38;33.10;84.10
6879;DHT22;3478;51.462;7.338;2022-08-03T11:49:40;33.20;84.40
6879;DHT22;3478;51.462;7.338;2022-08-03T11:54:44;33.40;86.20
6879;DHT22;3478;51.462;7.338;2022-08-03T11:59:46;33.80;80.80
6879;DHT22;3478;51.462;7.338;2022-08-03T12:04:49;34.00;80.70
6879;DHT22;3478;51.462;7.338;2022-08-03T12:10:08;34.40;78.00
6879;DHT22;3478;51.462;7.338;2022-08-03T12:15:11;34.20;76.70
6879;DHT22;3478;51.462;7.338;2022-08-03T12:20:20;34.20;77.70
6879;DHT22;3478;51.462;7.338;2022-08-03T12:25:25;34.90;77.10
6879;DHT22;3478;51.462;7.338;2022-08-03T12:30:27;35.30;73.40
6879;DHT22;3478;51.462;7.338;2022-08-03T12:35:29;35.70;75.40
6879;DHT22;3478;51.462;7.338;2022-08-03T12:40:32;36.30;72.20
6879;DHT22;3478;51.462;7.338;2022-08-03T12:45:34;36.00;70.70
6879;DHT22;3478;51.462;7.338;2022-08-03T12:50:37;36.10;69.70
6879;DHT22;3478;51.462;7.338;2022-08-03T12:55:42;36.90;68.30
6879;DHT22;3478;51.462;7.338;2022-08-03T13:00:54;37.10;65.90
6879;DHT22;3478;51.462;7.338;2022-08-03T13:05:56;36.90;62.90
6879;DHT22;3478;51.462;7.338;2022-08-03T13:11:17;36.80;61.50
6879;DHT22;3478;51.462;7.338;2022-08-03T13:16:19;36.90;63.00
6879;DHT22;3478;51.462;7.338;2022-08-03T13:21:21;36.80;60.70
6879;DHT22;3478;51.462;7.338;2022-08-03T13:26:25;37.10;64.70
6879;DHT22;3478;51.462;7.338;2022-08-03T13:31:27;37.70;60.00
6879;DHT22;3478;51.462;7.338;2022-08-03T13:36:28;37.00;61.20
6879;DHT22;3478;51.462;7.338;2022-08-03T13:41:32;37.00;60.70
6879;DHT22;3478;51.462;7.338;2022-08-03T13:46:33;37.30;61.80
6879;DHT22;3478;51.462;7.338;2022-08-03T13:51:35;37.20;58.20
6879;DHT22;3478;51.462;7.338;2022-08-03T13:56:39;38.40;58.80
6879;DHT22;3478;51.462;7.338;2022-08-03T14:01:41;39.00;58.80
6879;DHT22;3478;51.462;7.338;2022-08-03T14:06:43;39.80;56.30
6879;DHT22;3478;51.462;7.338;2022-08-03T14:11:47;38.40;55.30
6879;DHT22;3478;51.462;7.338;2022-08-03T14:16:49;37.20;57.60
6879;DHT22;3478;51.462;7.338;2022-08-03T14:21:51;37.50;58.80
6879;DHT22;3478;51.462;7.338;2022-08-03T14:26:54;38.20;57.40
6879;DHT22;3478;51.462;7.338;2022-08-03T14:31:56;39.70;54.70
6879;DHT22;3478;51.462;7.338;2022-08-03T14:36:58;39.10;53.50
6879;DHT22;3478;51.462;7.338;2022-08-03T14:42:01;38.10;55.20
6879;DHT22;3478;51.462;7.338;2022-08-03T14:47:03;36.40;57.90
6879;DHT22;3478;51.462;7.338;2022-08-03T14:52:05;36.30;57.80
6879;DHT22;3478;51.462;7.338;2022-08-03T14:57:08;36.40;57.00
6879;DHT22;3478;51.462;7.338;2022-08-03T15:02:10;37.30;56.00
6879;DHT22;3478;51.462;7.338;2022-08-03T15:07:12;38.60;54.40
6879;DHT22;3478;51.462;7.338;2022-08-03T15:12:15;39.10;52.90
6879;DHT22;3478;51.462;7.338;2022-08-03T15:17:17;39.10;53.10
6879;DHT22;3478;51.462;7.338;2022-08-03T15:22:19;39.40;52.10
6879;DHT22;3478;51.462;7.338;2022-08-03T15:27:22;39.50;51.20
6879;DHT22;3478;51.462;7.338;2022-08-03T15:32:24;39.10;50.90
6879;DHT22;3478;51.462;7.338;2022-08-03T15:37:27;39.60;51.20
6879;DHT22;3478;51.462;7.338;2022-08-03T15:42:32;40.80;50.70
6879;DHT22;3478;51.462;7.338;2022-08-03T15:47:34;41.30;49.80
6879;DHT22;3478;51.462;7.338;2022-08-03T15:52:36;40.50;50.80
6879;DHT22;3478;51.462;7.338;2022-08-03T15:57:39;39.90;51.00
6879;DHT22;3478;51.462;7.338;2022-08-03T16:02:41;40.20;50.50
6879;DHT22;3478;51.462;7.338;2022-08-03T16:07:43;40.20;50.00
6879;DHT22;3478;51.462;7.338;2022-08-03T16:12:49;39.90;49.90
6879;DHT22;3478;51.462;7.338;2022-08-03T16:17:51;39.80;49.30
6879;DHT22;3478;51.462;7.338;2022-08-03T16:22:53;39.60;49.90
6879;DHT22;3478;51.462;7.338;2022-08-03T16:27:57;39.80;50.50
6879;DHT22;3478;51.462;7.338;2022-08-03T16:32:58;40.30;49.60
6879;DHT22;3478;51.462;7.338;2022-08-03T16:38:00;40.40;49.50
6879;DHT22;3478;51.462;7.338;2022-08-03T16:43:11;39.80;49.70
6879;DHT22;3478;51.462;7.338;2022-08-03T16:48:13;38.90;49.20
6879;DHT22;3478;51.462;7.338;2022-08-03T16:53:15;38.30;51.20
6879;DHT22;3478;51.462;7.338;2022-08-03T16:58:19;38.10;49.90
6879;DHT22;3478;51.462;7.338;2022-08-03T17:03:21;38.10;50.90
6879;DHT22;3478;51.462;7.338;2022-08-03T17:08:23;37.80;50.70
6879;DHT22;3478;51.462;7.338;2022-08-03T17:13:27;38.00;50.60
6879;DHT22;3478;51.462;7.338;2022-08-03T17:18:29;38.00;49.70
6879;DHT22;3478;51.462;7.338;2022-08-03T17:23:39;37.70;49.70
6879;DHT22;3478;51.462;7.338;2022-08-03T17:28:47;37.70;52.00
6879;DHT22;3478;51.462;7.338;2022-08-03T17:33:50;37.90;51.50
6879;DHT22;3478;51.462;7.338;2022-08-03T17:38:53;37.10;49.80
6879;DHT22;3478;51.462;7.338;2022-08-03T17:43:57;36.40;50.50
6879;DHT22;3478;51.462;7.338;2022-08-03T17:49:02;36.20;51.20
6879;DHT22;3478;51.462;7.338;2022-08-03T17:54:09;36.10;51.20
6879;DHT22;3478;51.462;7.338;2022-08-03T17:59:20;35.90;53.00
6879;DHT22;3478;51.462;7.338;2022-08-03T18:04:26;36.10;53.80
6879;DHT22;3478;51.462;7.338;2022-08-03T18:09:30;36.20;53.40
6879;DHT22;3478;51.462;7.338;2022-08-03T18:14:42;35.90;52.70
6879;DHT22;3478;51.462;7.338;2022-08-03T18:19:45;35.50;52.90
6879;DHT22;3478;51.462;7.338;2022-08-03T18:24:48;34.50;55.20
6879;DHT22;3478;51.462;7.338;2022-08-03T18:29:52;33.60;56.30
6879;DHT22;3478;51.462;7.338;2022-08-03T18:34:55;32.90;56.60
6879;DHT22;3478;51.462;7.338;2022-08-03T18:39:57;32.20;57.40
6879;DHT22;3478;51.462;7.338;2022-08-03T18:45:00;31.70;58.50
6879;DHT22;3478;51.462;7.338;2022-08-03T18:50:11;31.20;59.50
6879;DHT22;3478;51.462;7.338;2022-08-03T18:55:17;30.90;59.70
6879;DHT22;3478;51.462;7.338;2022-08-03T19:00:23;30.60;62.90
6879;DHT22;3478;51.462;7.338;2022-08-03T19:05:27;30.40;61.90
6879;DHT22;3478;51.462;7.338;2022-08-03T19:10:32;30.10;62.70
6879;DHT22;3478;51.462;7.338;2022-08-03T19:15:37;30.00;63.40
6879;DHT22;3478;51.462;7.338;2022-08-03T19:20:39;29.80;64.60
6879;DHT22;3478;51.462;7.338;2022-08-03T19:25:41;29.40;65.10
6879;DHT22;3478;51.462;7.338;2022-08-03T19:30:47;29.20;65.10
6879;DHT22;3478;51.462;7.338;2022-08-03T19:35:51;29.00;65.80
6879;DHT22;3478;51.462;7.338;2022-08-03T19:40:55;28.90;65.60
6879;DHT22;3478;51.462;7.338;2022-08-03T19:46:02;28.80;66.30
6879;DHT22;3478;51.462;7.338;2022-08-03T19:51:07;28.60;69.30
6879;DHT22;3478;51.462;7.338;2022-08-03T19:56:10;28.50;69.50
6879;DHT22;3478;51.462;7.338;2022-08-03T20:01:15;28.30;71.30
6879;DHT22;3478;51.462;7.338;2022-08-03T20:06:20;28.20;71.70
6879;DHT22;3478;51.462;7.338;2022-08-03T20:11:25;28.00;71.40
6879;DHT22;3478;51.462;7.338;2022-08-03T20:16:28;27.90;71.90
6879;DHT22;3478;51.462;7.338;2022-08-03T20:21:30;27.80;73.70
6879;DHT22;3478;51.462;7.338;2022-08-03T20:26:35;27.60;74.50
6879;DHT22;3478;51.462;7.338;2022-08-03T20:31:39;27.40;76.20
6879;DHT22;3478;51.462;7.338;2022-08-03T20:36:41;27.30;76.20
6879;DHT22;3478;51.462;7.338;2022-08-03T20:41:43;27.20;77.70
6879;DHT22;3478;51.462;7.338;2022-08-03T20:46:46;27.20;79.00
6879;DHT22;3478;51.462;7.338;2022-08-03T20:51:48;27.00;79.60
6879;DHT22;3478;51.462;7.338;2022-08-03T20:56:51;26.80;80.50
6879;DHT22;3478;51.462;7.338;2022-08-03T21:01:54;26.80;82.40
6879;DHT22;3478;51.462;7.338;2022-08-03T21:06:59;26.60;83.20
6879;DHT22;3478;51.462;7.338;2022-08-03T21:12:03;26.50;84.90
6879;DHT22;3478;51.462;7.338;2022-08-03T21:17:09;26.40;86.30
6879;DHT22;3478;51.462;7.338;2022-08-03T21:22:12;26.30;88.30
6879;DHT22;3478;51.462;7.338;2022-08-03T21:27:15;26.20;90.00
6879;DHT22;3478;51.462;7.338;2022-08-03T21:32:18;26.10;90.60
6879;DHT22;3478;51.462;7.338;2022-08-03T21:37:21;26.00;91.20
6879;DHT22;3478;51.462;7.338;2022-08-03T21:42:23;25.80;92.20
6879;DHT22;3478;51.462;7.338;2022-08-03T21:47:26;25.80;92.50
6879;DHT22;3478;51.462;7.338;2022-08-03T21:52:30;25.70;93.40
6879;DHT22;3478;51.462;7.338;2022-08-03T21:57:33;25.60;93.90
6879;DHT22;3478;51.462;7.338;2022-08-03T22:02:37;25.60;94.20
6879;DHT22;3478;51.462;7.338;2022-08-03T22:07:40;25.50;94.80
6879;DHT22;3478;51.462;7.338;2022-08-03T22:12:42;25.40;95.10
6879;DHT22;3478;51.462;7.338;2022-08-03T22:17:46;25.30;95.20
6879;DHT22;3478;51.462;7.338;2022-08-03T22:22:50;25.30;95.40
6879;DHT22;3478;51.462;7.338;2022-08-03T22:27:54;25.30;96.10
6879;DHT22;3478;51.462;7.338;2022-08-03T22:32:57;25.20;96.30
6879;DHT22;3478;51.462;7.338;2022-08-03T22:38:04;25.20;96.90
6879;DHT22;3478;51.462;7.338;2022-08-03T22:43:06;25.10;97.30
6879;DHT22;3478;51.462;7.338;2022-08-03T22:48:10;25.10;97.70
6879;DHT22;3478;51.462;7.338;2022-08-03T22:53:18;25.00;98.20
6879;DHT22;3478;51.462;7.338;2022-08-03T22:58:21;25.00;97.70
6879;DHT22;3478;51.462;7.338;2022-08-03T23:03:28;25.00;97.90
6879;DHT22;3478;51.462;7.338;2022-08-03T23:08:32;25.00;98.60
6879;DHT22;3478;51.462;7.338;2022-08-03T23:13:34;24.90;98.50
6879;DHT22;3478;51.462;7.338;2022-08-03T23:18:38;24.90;98.50
6879;DHT22;3478;51.462;7.338;2022-08-03T23:23:42;24.80;98.70
6879;DHT22;3478;51.462;7.338;2022-08-03T23:28:46;24.80;99.40
6879;DHT22;3478;51.462;7.338;2022-08-03T23:33:51;24.70;99.60
6879;DHT22;3478;51.462;7.338;2022-08-03T23:39:13;24.70;99.80
6879;DHT22;3478;51.462;7.338;2022-08-03T23:44:17;24.60;99.90
6879;DHT22;3478;51.462;7.338;2022-08-03T23:49:22;24.60;99.90
6879;DHT22;3478;51.462;7.338;2022-08-03T23:54:39;24.60;99.90
6879;DHT22;3478;51.462;7.338;2022-08-03T23:59:50;24.50;99.90
